createdAt,value
2017-07-03T00:02:04.722Z,101121.63
2017-07-03T00:04:32.142Z,101126.88
2017-07-03T00:06:59.565Z,101126.80
2017-07-03T00:09:26.998Z,101128.22
2017-07-03T00:11:54.413Z,101125.77
2017-07-03T00:14:21.856Z,101126.07
2017-07-03T00:16:49.305Z,101125.34
2017-07-03T00:19:16.742Z,101132.46
2017-07-03T00:21:44.165Z,101131.31
2017-07-03T00:24:11.586Z,101128.94
2017-07-03T00:26:38.994Z,101131.31
2017-07-03T00:29:06.423Z,101126.98
2017-07-03T00:31:33.838Z,101121.55
2017-07-03T00:34:01.276Z,101121.13
2017-07-03T00:36:28.685Z,101124.94
2017-07-03T00:38:56.166Z,101125.86
2017-07-03T00:41:23.594Z,101118.55
2017-07-03T00:43:51.030Z,101114.23
2017-07-03T00:46:18.459Z,101114.23
2017-07-03T00:48:45.866Z,101106.81
2017-07-03T00:51:13.294Z,101110.91
2017-07-03T00:53:40.717Z,101110.41
2017-07-03T00:56:08.126Z,101109.38
2017-07-03T00:58:35.558Z,101110.59
2017-07-03T01:01:02.980Z,101109.25
2017-07-03T01:03:30.389Z,101114.30
2017-07-03T01:05:57.809Z,101120.91
2017-07-03T01:08:25.273Z,101120.78
2017-07-03T01:10:52.747Z,101122.81
2017-07-03T01:13:20.154Z,101121.04
2017-07-03T01:15:47.580Z,101124.42
2017-07-03T01:18:15.006Z,101115.16
2017-07-03T01:20:42.419Z,101119.47
2017-07-03T01:23:09.848Z,101113.27
2017-07-03T01:25:37.515Z,101113.27
2017-07-03T01:28:04.938Z,101117.58
2017-07-03T01:30:32.367Z,101111.17
2017-07-03T01:32:59.799Z,101114.55
2017-07-03T01:35:27.226Z,101106.22
2017-07-03T01:37:54.674Z,101107.45
2017-07-03T01:40:22.097Z,101108.79
2017-07-03T01:42:49.533Z,101105.69
2017-07-03T01:45:16.966Z,101106.62
2017-07-03T01:47:44.385Z,101108.05
2017-07-03T01:50:11.831Z,101108.75
2017-07-03T01:52:39.248Z,101112.96
2017-07-03T01:55:06.677Z,101108.37
2017-07-03T01:57:34.113Z,101111.64
2017-07-03T02:00:01.522Z,101116.47
2017-07-03T02:02:28.954Z,101115.13
2017-07-03T02:04:56.375Z,101108.64
2017-07-03T02:07:23.802Z,101108.44
2017-07-03T02:09:51.230Z,101111.98
2017-07-03T02:12:18.646Z,101105.80
2017-07-03T02:14:46.089Z,101115.63
2017-07-03T02:17:13.493Z,101113.75
2017-07-03T02:19:40.929Z,101113.73
2017-07-03T02:22:08.350Z,101121.16
2017-07-03T02:24:35.765Z,101119.20
2017-07-03T02:27:03.198Z,101116.29
2017-07-03T02:29:30.609Z,101126.33
2017-07-03T02:31:58.018Z,101116.58
2017-07-03T02:34:25.446Z,101123.11
2017-07-03T02:36:52.912Z,101122.92
2017-07-03T02:39:20.358Z,101123.60
2017-07-03T02:41:47.793Z,101123.22
2017-07-03T02:44:15.207Z,101121.59
2017-07-03T02:46:42.625Z,101120.02
2017-07-03T02:49:10.049Z,101122.17
2017-07-03T02:51:37.821Z,101122.46
2017-07-03T02:54:05.237Z,101127.67
2017-07-03T02:56:32.649Z,101127.58
2017-07-03T02:59:00.075Z,101123.94
2017-07-03T03:01:27.485Z,101124.22
2017-07-03T03:03:54.913Z,101128.84
2017-07-03T03:06:22.325Z,101123.39
2017-07-03T03:08:49.741Z,101124.78
2017-07-03T03:11:17.170Z,101133.58
2017-07-03T03:13:44.585Z,101134.11
2017-07-03T03:16:12.021Z,101139.31
2017-07-03T03:18:39.433Z,101138.16
2017-07-03T03:21:06.861Z,101136.95
2017-07-03T03:23:34.286Z,101144.55
2017-07-03T03:26:01.726Z,101149.99
2017-07-03T03:28:29.142Z,101146.09
2017-07-03T03:30:56.579Z,101142.30
2017-07-03T03:33:24.050Z,101140.75
2017-07-03T03:35:51.466Z,101141.46
2017-07-03T03:38:18.911Z,101141.70
2017-07-03T03:40:46.325Z,101138.29
2017-07-03T03:43:13.749Z,101143.49
2017-07-03T03:45:47.150Z,101144.00
2017-07-03T03:48:14.585Z,101145.78
2017-07-03T03:50:42.029Z,101144.52
2017-07-03T03:53:09.449Z,101146.52
2017-07-03T03:55:36.870Z,101143.62
2017-07-03T03:58:04.314Z,101152.37
2017-07-03T04:00:31.741Z,101154.44
2017-07-03T04:02:59.167Z,101146.88
2017-07-03T04:05:26.597Z,101144.20
2017-07-03T04:07:54.036Z,101146.90
2017-07-03T04:10:21.447Z,101149.09
2017-07-03T04:12:48.905Z,101149.09
2017-07-03T04:15:16.323Z,101142.02
2017-07-03T04:17:43.738Z,101138.77
2017-07-03T04:20:11.203Z,101144.56
2017-07-03T04:22:38.616Z,101141.20
2017-07-03T04:25:06.053Z,101139.47
2017-07-03T04:27:33.463Z,101139.09
2017-07-03T04:30:00.875Z,101143.58
2017-07-03T04:32:28.302Z,101137.53
2017-07-03T04:34:55.798Z,101145.05
2017-07-03T04:37:23.238Z,101145.37
2017-07-03T04:39:50.650Z,101144.27
2017-07-03T04:42:18.095Z,101144.07
2017-07-03T04:44:45.515Z,101140.39
2017-07-03T04:47:12.937Z,101143.72
2017-07-03T04:49:40.361Z,101148.67
2017-07-03T04:52:07.776Z,101143.66
2017-07-03T04:54:35.197Z,101145.52
2017-07-03T04:57:02.610Z,101149.96
2017-07-03T04:59:30.060Z,101146.20
2017-07-03T05:01:57.481Z,101150.05
2017-07-03T05:04:24.909Z,101145.12
2017-07-03T05:06:52.337Z,101143.06
2017-07-03T05:09:19.748Z,101141.06
2017-07-03T05:11:47.181Z,101135.92
2017-07-03T05:14:14.602Z,101139.52
2017-07-03T05:16:42.050Z,101133.15
2017-07-03T05:19:09.500Z,101133.27
2017-07-03T05:21:36.928Z,101137.99
2017-07-03T05:24:04.356Z,101133.18
2017-07-03T05:26:31.774Z,101132.65
2017-07-03T05:28:59.257Z,101129.36
2017-07-03T05:31:26.674Z,101133.58
2017-07-03T05:33:54.105Z,101127.83
2017-07-03T05:36:21.522Z,101127.19
2017-07-03T05:38:48.941Z,101125.23
2017-07-03T05:41:16.372Z,101128.13
2017-07-03T05:43:49.301Z,101130.08
2017-07-03T05:46:16.729Z,101134.28
2017-07-03T05:48:44.134Z,101135.50
2017-07-03T05:51:11.561Z,101139.24
2017-07-03T05:53:38.965Z,101143.56
2017-07-03T05:56:06.405Z,101146.05
2017-07-03T05:58:33.814Z,101148.71
2017-07-03T06:01:01.238Z,101145.19
2017-07-03T06:03:28.705Z,101148.77
2017-07-03T06:05:56.153Z,101145.97
2017-07-03T06:08:23.581Z,101140.70
2017-07-03T06:10:51.027Z,101134.28
2017-07-03T06:13:18.462Z,101142.75
2017-07-03T06:15:45.865Z,101143.77
2017-07-03T06:18:13.282Z,101147.05
2017-07-03T06:20:40.753Z,101150.33
2017-07-03T06:23:08.166Z,101156.30
2017-07-03T06:25:35.595Z,101152.45
2017-07-03T06:28:03.009Z,101141.48
2017-07-03T06:30:30.425Z,101140.62
2017-07-03T06:32:57.853Z,101151.55
2017-07-03T06:35:25.261Z,101143.78
2017-07-03T06:37:52.706Z,101144.27
2017-07-03T06:40:20.116Z,101145.28
2017-07-03T06:42:48.369Z,101150.95
2017-07-03T06:45:15.795Z,101153.30
2017-07-03T06:47:43.246Z,101154.97
2017-07-03T06:50:10.725Z,101155.16
2017-07-03T06:52:38.163Z,101151.09
2017-07-03T06:55:05.613Z,101155.86
2017-07-03T06:57:33.022Z,101156.06
2017-07-03T07:00:00.453Z,101149.03
2017-07-03T07:02:27.895Z,101145.04
2017-07-03T07:04:55.305Z,101150.15
2017-07-03T07:07:22.742Z,101147.08
2017-07-03T07:09:50.167Z,101150.69
2017-07-03T07:12:17.613Z,101150.33
2017-07-03T07:14:45.026Z,101148.28
2017-07-03T07:17:12.442Z,101148.34
2017-07-03T07:19:39.884Z,101142.68
2017-07-03T07:22:07.323Z,101151.78
2017-07-03T07:24:34.824Z,101145.29
2017-07-03T07:27:02.257Z,101150.84
2017-07-03T07:29:29.902Z,101148.11
2017-07-03T07:31:57.337Z,101151.45
2017-07-03T07:34:24.748Z,101149.84
2017-07-03T07:36:52.183Z,101145.61
2017-07-03T07:39:19.598Z,101145.27
2017-07-03T07:41:47.037Z,101145.77
2017-07-03T07:44:14.461Z,101140.88
2017-07-03T07:46:41.873Z,101132.15
2017-07-03T07:49:09.306Z,101134.33
2017-07-03T07:51:36.717Z,101133.72
2017-07-03T07:54:04.167Z,101130.04
2017-07-03T07:56:31.593Z,101135.86
2017-07-03T07:58:59.009Z,101131.91
2017-07-03T08:01:26.429Z,101128.03
2017-07-03T08:03:53.834Z,101127.05
2017-07-03T08:06:21.257Z,101135.86
2017-07-03T08:08:48.665Z,101135.56
2017-07-03T08:11:16.100Z,101135.13
2017-07-03T08:13:43.519Z,101121.27
2017-07-03T08:16:10.929Z,101119.13
2017-07-03T08:18:38.346Z,101118.00
2017-07-03T08:21:05.754Z,101119.55
2017-07-03T08:23:33.177Z,101116.34
2017-07-03T08:26:00.587Z,101112.66
2017-07-03T08:28:28.018Z,101120.06
2017-07-03T08:30:55.422Z,101114.41
2017-07-03T08:33:22.830Z,101114.19
2017-07-03T08:35:50.262Z,101111.53
2017-07-03T08:38:17.670Z,101106.12
2017-07-03T08:40:45.090Z,101104.14
2017-07-03T08:43:12.499Z,101108.70
2017-07-03T08:45:39.925Z,101108.00
2017-07-03T08:48:07.331Z,101109.66
2017-07-03T08:50:34.750Z,101106.31
2017-07-03T08:53:02.180Z,101105.39
2017-07-03T08:55:29.577Z,101103.12
2017-07-03T08:57:57.004Z,101098.55
2017-07-03T09:00:24.405Z,101092.20
2017-07-03T09:02:51.838Z,101087.97
2017-07-03T09:05:19.245Z,101089.36
2017-07-03T09:07:46.653Z,101088.41
2017-07-03T09:10:14.071Z,101090.86
2017-07-03T09:12:41.477Z,101083.52
2017-07-03T09:15:08.897Z,101087.77
2017-07-03T09:17:36.310Z,101077.53
2017-07-03T09:20:03.737Z,101078.01
2017-07-03T09:22:31.134Z,101072.16
2017-07-03T09:24:58.557Z,101078.41
2017-07-03T09:27:25.960Z,101074.16
2017-07-03T09:29:53.372Z,101074.16
2017-07-03T09:32:20.781Z,101066.09
2017-07-03T09:34:48.186Z,101069.81
2017-07-03T09:37:15.600Z,101067.23
2017-07-03T09:39:43.018Z,101065.42
2017-07-03T09:42:10.451Z,101067.47
2017-07-03T09:44:37.874Z,101069.22
2017-07-03T09:47:05.293Z,101059.75
2017-07-03T09:49:32.714Z,101064.98
2017-07-03T09:52:00.134Z,101059.39
2017-07-03T09:54:27.561Z,101060.00
2017-07-03T09:56:54.973Z,101059.19
2017-07-03T09:59:22.406Z,101056.67
2017-07-03T10:01:49.820Z,101062.50
2017-07-03T10:04:17.250Z,101054.86
2017-07-03T10:06:44.648Z,101056.61
2017-07-03T10:09:12.084Z,101054.72
2017-07-03T10:11:39.549Z,101052.30
2017-07-03T10:14:06.977Z,101051.88
2017-07-03T10:16:34.410Z,101046.24
2017-07-03T10:19:01.823Z,101038.45
2017-07-03T10:21:29.269Z,101043.63
2017-07-03T10:23:56.702Z,101042.55
2017-07-03T10:26:24.105Z,101028.25
2017-07-03T10:28:51.530Z,101029.50
2017-07-03T10:31:18.934Z,101029.63
2017-07-03T10:33:46.354Z,101026.91
2017-07-03T10:36:13.785Z,101030.70
2017-07-03T10:38:41.235Z,101021.61
2017-07-03T10:41:08.637Z,101019.67
2017-07-03T10:43:36.047Z,101015.97
2017-07-03T10:46:03.458Z,101023.91
2017-07-03T10:48:30.870Z,101019.58
2017-07-03T10:50:58.291Z,101022.65
2017-07-03T10:53:25.695Z,101013.52
2017-07-03T10:55:53.133Z,101022.33
2017-07-03T10:58:20.536Z,101024.63
2017-07-03T11:00:47.938Z,101018.20
2017-07-03T11:03:15.359Z,101012.54
2017-07-03T11:05:42.769Z,101013.65
2017-07-03T11:08:10.186Z,101002.94
2017-07-03T11:10:37.589Z,101006.77
2017-07-03T11:13:05.063Z,101002.25
2017-07-03T11:15:32.473Z,100987.05
2017-07-03T11:17:59.878Z,100997.14
2017-07-03T11:20:27.299Z,100986.32
2017-07-03T11:22:54.734Z,100984.31
2017-07-03T11:25:22.147Z,100972.72
2017-07-03T11:27:49.551Z,100965.35
2017-07-03T11:30:16.989Z,100965.41
2017-07-03T11:32:44.402Z,100960.67
2017-07-03T11:35:11.804Z,100960.09
2017-07-03T11:37:39.217Z,100958.93
2017-07-03T11:40:06.621Z,100957.56
2017-07-03T11:42:34.058Z,100957.03
2017-07-03T11:45:01.483Z,100948.92
2017-07-03T11:47:28.898Z,100957.41
2017-07-03T11:49:56.319Z,100951.49
2017-07-03T11:52:23.717Z,100945.97
2017-07-03T11:54:51.148Z,100952.68
2017-07-03T11:57:18.555Z,100946.09
2017-07-03T11:59:45.981Z,100951.88
2017-07-03T12:02:13.411Z,100954.97
2017-07-03T12:04:40.835Z,100958.51
2017-07-03T12:07:08.248Z,100953.48
2017-07-03T12:09:35.666Z,100946.43
2017-07-03T12:12:03.095Z,100941.78
2017-07-03T12:14:30.494Z,100944.16
2017-07-03T12:16:57.918Z,100949.86
2017-07-03T12:19:25.338Z,100943.36
2017-07-03T12:21:52.750Z,100937.17
2017-07-03T12:24:20.174Z,100952.37
2017-07-03T12:26:47.589Z,100938.42
2017-07-03T12:29:15.011Z,100938.16
2017-07-03T12:31:42.418Z,100938.87
2017-07-03T12:34:09.837Z,100934.70
2017-07-03T12:36:37.251Z,100925.23
2017-07-03T12:39:04.667Z,100935.27
2017-07-03T12:41:32.086Z,100933.08
2017-07-03T12:43:59.493Z,100922.13
2017-07-03T12:46:26.905Z,100915.59
2017-07-03T12:48:54.318Z,100923.75
2017-07-03T12:51:21.745Z,100918.53
2017-07-03T12:53:49.149Z,100917.25
2017-07-03T12:56:16.549Z,100921.10
2017-07-03T12:58:43.962Z,100912.13
2017-07-03T13:01:11.365Z,100914.75
2017-07-03T13:03:38.794Z,100916.66
2017-07-03T13:06:06.207Z,100910.81
2017-07-03T13:08:33.613Z,100915.42
2017-07-03T13:11:01.025Z,100908.51
2017-07-03T13:13:28.429Z,100907.28
2017-07-03T13:15:55.857Z,100913.59
2017-07-03T13:18:23.258Z,100911.37
2017-07-03T13:20:50.657Z,100905.59
2017-07-03T13:23:18.074Z,100901.16
2017-07-03T13:25:45.483Z,100900.89
2017-07-03T13:28:12.897Z,100896.80
2017-07-03T13:30:40.310Z,100892.97
2017-07-03T13:33:07.746Z,100903.31
2017-07-03T13:35:35.146Z,100899.88
2017-07-03T13:38:02.558Z,100894.92
2017-07-03T13:40:29.981Z,100883.81
2017-07-03T13:42:57.386Z,100881.44
2017-07-03T13:45:24.817Z,100878.69
2017-07-03T13:47:52.215Z,100880.25
2017-07-03T13:50:19.658Z,100868.48
2017-07-03T13:52:47.079Z,100861.94
2017-07-03T13:55:14.489Z,100869.59
2017-07-03T13:57:41.994Z,100878.34
2017-07-03T14:00:09.396Z,100867.53
2017-07-03T14:02:36.822Z,100863.61
2017-07-03T14:05:04.226Z,100860.84
2017-07-03T14:07:31.667Z,100868.75
2017-07-03T14:09:59.085Z,100862.59
2017-07-03T14:12:26.486Z,100844.61
2017-07-03T14:14:53.903Z,100852.23
2017-07-03T14:17:21.313Z,100850.08
2017-07-03T14:19:48.726Z,100854.37
2017-07-03T14:22:16.134Z,100861.66
2017-07-03T14:24:43.568Z,100854.75
2017-07-03T14:27:11.225Z,100854.48
2017-07-03T14:29:38.630Z,100849.54
2017-07-03T14:32:06.046Z,100846.38
2017-07-03T14:34:33.484Z,100845.62
2017-07-03T14:37:00.918Z,100840.98
2017-07-03T14:39:28.321Z,100850.49
2017-07-03T14:41:55.774Z,100845.31
2017-07-03T14:44:23.185Z,100847.11
2017-07-03T14:46:50.595Z,100855.39
2017-07-03T14:49:18.100Z,100855.73
2017-07-03T14:51:45.533Z,100856.20
2017-07-03T14:54:12.971Z,100847.83
2017-07-03T14:56:40.389Z,100836.70
2017-07-03T14:59:07.833Z,100832.83
2017-07-03T15:01:35.241Z,100833.84
2017-07-03T15:04:02.649Z,100822.50
2017-07-03T15:06:30.085Z,100832.45
2017-07-03T15:08:57.497Z,100830.89
2017-07-03T15:11:24.922Z,100829.30
2017-07-03T15:13:52.325Z,100828.39
2017-07-03T15:16:19.776Z,100819.67
2017-07-03T15:18:47.183Z,100811.21
2017-07-03T15:21:14.595Z,100821.70
2017-07-03T15:23:42.009Z,100812.06
2017-07-03T15:26:09.414Z,100810.75
2017-07-03T15:28:36.831Z,100816.37
2017-07-03T15:31:04.242Z,100814.42
2017-07-03T15:33:31.682Z,100813.98
2017-07-03T15:35:59.085Z,100806.07
2017-07-03T15:38:26.494Z,100806.83
2017-07-03T15:40:53.911Z,100804.61
2017-07-03T15:43:21.321Z,100801.58
2017-07-03T15:45:48.733Z,100796.15
2017-07-03T15:48:16.146Z,100802.11
2017-07-03T15:50:43.584Z,100794.27
2017-07-03T15:53:10.999Z,100794.72
2017-07-03T15:55:38.426Z,100787.72
2017-07-03T15:58:05.846Z,100789.55
2017-07-03T16:00:33.253Z,100794.97
2017-07-03T16:03:00.677Z,100793.37
2017-07-03T16:05:28.086Z,100793.73
2017-07-03T16:07:55.495Z,100790.06
2017-07-03T16:10:22.909Z,100787.94
2017-07-03T16:12:50.322Z,100791.31
2017-07-03T16:15:17.745Z,100788.61
2017-07-03T16:17:45.150Z,100787.31
2017-07-03T16:20:12.558Z,100783.27
2017-07-03T16:22:39.973Z,100783.73
2017-07-03T16:25:07.385Z,100777.64
2017-07-03T16:27:34.809Z,100788.14
2017-07-03T16:30:02.215Z,100781.85
2017-07-03T16:32:29.617Z,100777.66
2017-07-03T16:34:57.038Z,100777.06
2017-07-03T16:37:24.437Z,100778.42
2017-07-03T16:39:51.850Z,100781.30
2017-07-03T16:42:19.252Z,100784.07
2017-07-03T16:44:46.686Z,100776.20
2017-07-03T16:47:14.093Z,100780.03
2017-07-03T16:49:41.505Z,100785.66
2017-07-03T16:52:08.919Z,100787.74
2017-07-03T16:54:36.322Z,100776.77
2017-07-03T16:57:03.761Z,100774.19
2017-07-03T16:59:31.173Z,100777.58
2017-07-03T17:01:58.618Z,100774.00
2017-07-03T17:04:26.034Z,100771.61
2017-07-03T17:06:53.440Z,100767.48
2017-07-03T17:09:20.862Z,100771.05
2017-07-03T17:11:48.276Z,100772.98
2017-07-03T17:14:15.711Z,100782.20
2017-07-03T17:16:43.116Z,100778.95
2017-07-03T17:19:10.550Z,100789.39
2017-07-03T17:21:37.967Z,100781.23
2017-07-03T17:24:07.070Z,100777.92
2017-07-03T17:26:34.542Z,100777.39
2017-07-03T17:29:01.951Z,100783.83
2017-07-03T17:31:29.888Z,100783.38
2017-07-03T17:33:57.298Z,100787.56
2017-07-03T17:36:24.722Z,100782.31
2017-07-03T17:38:52.131Z,100787.09
2017-07-03T17:41:19.538Z,100786.47
2017-07-03T17:43:46.963Z,100784.47
2017-07-03T17:46:14.398Z,100782.83
2017-07-03T17:48:41.862Z,100787.30
2017-07-03T17:51:09.273Z,100796.00
2017-07-03T17:53:36.702Z,100784.16
2017-07-03T17:56:04.105Z,100785.78
2017-07-03T17:58:31.514Z,100778.82
2017-07-03T18:00:58.938Z,100789.97
2017-07-03T18:03:26.393Z,100784.35
2017-07-03T18:05:53.806Z,100785.94
2017-07-03T18:08:21.267Z,100783.37
2017-07-03T18:10:48.781Z,100780.91
2017-07-03T18:13:16.185Z,100784.20
2017-07-03T18:15:43.593Z,100790.93
2017-07-03T18:18:11.017Z,100789.19
2017-07-03T18:20:38.422Z,100784.16
2017-07-03T18:23:05.850Z,100791.49
2017-07-03T18:25:33.253Z,100790.78
2017-07-03T18:28:00.687Z,100776.11
2017-07-03T18:30:28.082Z,100782.23
2017-07-03T18:32:55.485Z,100787.56
2017-07-03T18:35:22.897Z,100775.39
2017-07-03T18:37:50.303Z,100779.33
2017-07-03T18:40:17.729Z,100775.62
2017-07-03T18:42:45.130Z,100775.77
2017-07-03T18:45:12.545Z,100771.16
2017-07-03T18:47:39.962Z,100774.85
2017-07-03T18:50:07.415Z,100775.00
2017-07-03T18:52:34.817Z,100778.02
2017-07-03T18:55:02.227Z,100775.32
2017-07-03T18:57:29.645Z,100778.98
2017-07-03T18:59:57.054Z,100776.39
2017-07-03T19:02:24.552Z,100782.11
2017-07-03T19:04:51.975Z,100772.17
2017-07-03T19:07:19.377Z,100776.81
2017-07-03T19:09:46.794Z,100779.11
2017-07-03T19:12:14.204Z,100775.33
2017-07-03T19:14:41.626Z,100774.39
2017-07-03T19:17:09.030Z,100774.66
2017-07-03T19:19:36.438Z,100776.55
2017-07-03T19:22:03.849Z,100771.40
2017-07-03T19:24:31.254Z,100774.27
2017-07-03T19:26:58.665Z,100772.76
2017-07-03T19:29:26.066Z,100773.05
2017-07-03T19:31:53.495Z,100774.69
2017-07-03T19:34:20.903Z,100763.95
2017-07-03T19:36:48.301Z,100766.81
2017-07-03T19:39:15.721Z,100769.00
2017-07-03T19:41:43.126Z,100772.27
2017-07-03T19:44:10.547Z,100766.83
2017-07-03T19:46:37.965Z,100773.64
2017-07-03T19:49:05.385Z,100766.30
2017-07-03T19:51:32.793Z,100770.52
2017-07-03T19:54:00.208Z,100770.25
2017-07-03T19:56:27.625Z,100772.95
2017-07-03T19:58:55.039Z,100769.42
2017-07-03T20:01:22.450Z,100770.80
2017-07-03T20:03:49.857Z,100777.72
2017-07-03T20:06:17.288Z,100782.72
2017-07-03T20:08:44.693Z,100779.17
2017-07-03T20:11:12.110Z,100779.58
2017-07-03T20:13:39.529Z,100777.42
2017-07-03T20:16:06.938Z,100777.81
2017-07-03T20:18:34.358Z,100775.93
2017-07-03T20:21:01.774Z,100782.02
2017-07-03T20:23:29.194Z,100784.47
2017-07-03T20:25:56.602Z,100787.43
2017-07-03T20:28:24.010Z,100786.50
2017-07-03T20:30:51.426Z,100788.12
2017-07-03T20:33:18.847Z,100789.05
2017-07-03T20:35:46.264Z,100787.28
2017-07-03T20:38:13.690Z,100793.23
2017-07-03T20:40:41.117Z,100791.31
2017-07-03T20:43:08.529Z,100796.73
2017-07-03T20:45:35.941Z,100794.83
2017-07-03T20:48:03.357Z,100797.13
2017-07-03T20:50:30.770Z,100794.61
2017-07-03T20:52:58.187Z,100790.91
2017-07-03T20:55:25.585Z,100789.37
2017-07-03T20:57:53.027Z,100789.94
2017-07-03T21:00:20.424Z,100792.33
2017-07-03T21:02:47.832Z,100792.45
2017-07-03T21:05:15.261Z,100792.83
2017-07-03T21:07:42.681Z,100789.16
2017-07-03T21:10:10.113Z,100793.30
2017-07-03T21:12:37.538Z,100800.17
2017-07-03T21:15:04.944Z,100799.32
2017-07-03T21:17:32.378Z,100802.95
2017-07-03T21:19:59.794Z,100804.42
2017-07-03T21:22:27.213Z,100806.24
2017-07-03T21:24:54.633Z,100813.79
2017-07-03T21:27:22.063Z,100812.10
2017-07-03T21:29:49.477Z,100811.66
2017-07-03T21:32:16.894Z,100811.62
2017-07-03T21:34:44.328Z,100819.30
2017-07-03T21:37:11.731Z,100814.80
2017-07-03T21:39:39.148Z,100814.59
2017-07-03T21:42:06.561Z,100815.64
2017-07-03T21:44:33.993Z,100808.98
2017-07-03T21:47:01.409Z,100803.01
2017-07-03T21:49:28.829Z,100807.83
2017-07-03T21:51:56.250Z,100812.14
2017-07-03T21:54:23.670Z,100813.17
2017-07-03T21:56:51.092Z,100811.92
2017-07-03T21:59:18.509Z,100819.31
2017-07-03T22:01:45.938Z,100829.16
2017-07-03T22:04:13.358Z,100832.28
2017-07-03T22:06:40.772Z,100824.62
2017-07-03T22:09:08.209Z,100825.00
2017-07-03T22:11:35.642Z,100831.31
2017-07-03T22:14:03.073Z,100835.12
2017-07-03T22:16:30.489Z,100834.75
2017-07-03T22:18:57.921Z,100831.56
2017-07-03T22:21:25.337Z,100829.55
2017-07-03T22:23:53.481Z,100840.23
2017-07-03T22:26:21.000Z,100832.36
2017-07-03T22:28:48.416Z,100838.05
2017-07-03T22:31:15.849Z,100840.16
2017-07-03T22:33:43.322Z,100842.27
2017-07-03T22:36:10.752Z,100845.02
2017-07-03T22:38:38.181Z,100843.03
2017-07-03T22:41:05.594Z,100842.95
2017-07-03T22:43:33.053Z,100845.58
2017-07-03T22:46:00.478Z,100850.05
2017-07-03T22:48:27.901Z,100852.02
2017-07-03T22:50:55.315Z,100850.75
2017-07-03T22:53:22.766Z,100855.84
2017-07-03T22:55:50.209Z,100850.84
2017-07-03T22:58:17.661Z,100858.31
2017-07-03T23:00:45.126Z,100857.89
2017-07-03T23:03:12.546Z,100856.17
2017-07-03T23:05:40.084Z,100862.23
2017-07-03T23:08:07.492Z,100859.57
2017-07-03T23:10:35.001Z,100859.01
2017-07-03T23:13:02.422Z,100856.91
2017-07-03T23:15:29.846Z,100861.05
2017-07-03T23:17:57.286Z,100865.73
2017-07-03T23:20:24.712Z,100870.30
2017-07-03T23:22:52.122Z,100866.06
2017-07-03T23:25:19.610Z,100876.86
2017-07-03T23:27:47.037Z,100870.90
2017-07-03T23:30:14.481Z,100873.88
2017-07-03T23:32:41.915Z,100873.12
2017-07-03T23:35:09.363Z,100874.48
2017-07-03T23:37:36.813Z,100873.43
2017-07-03T23:40:04.253Z,100870.48
2017-07-03T23:42:31.681Z,100874.55
2017-07-03T23:44:59.117Z,100876.70
2017-07-03T23:47:26.546Z,100872.21
2017-07-03T23:49:53.976Z,100871.84
2017-07-03T23:52:21.418Z,100877.20
2017-07-03T23:54:48.873Z,100872.45
2017-07-03T23:57:16.347Z,100868.77
2017-07-03T23:59:43.781Z,100866.84
